createdAt,value
2023-02-11T00:00:04.202Z,2.07
2023-02-11T00:05:12.352Z,2.05
2023-02-11T00:10:19.761Z,2.01
2023-02-11T00:15:27.446Z,1.96
2023-02-11T00:20:34.501Z,1.94
2023-02-11T00:25:44.005Z,1.96
2023-02-11T00:30:58.713Z,2.00
2023-02-11T00:36:09.399Z,2.01
2023-02-11T00:41:17.857Z,2.00
2023-02-11T00:46:25.516Z,1.96
2023-02-11T00:51:32.682Z,1.92
2023-02-11T00:56:39.887Z,1.91
2023-02-11T01:01:47.155Z,1.93
2023-02-11T01:06:54.372Z,1.96
2023-02-11T01:12:01.701Z,1.97
2023-02-11T01:17:09.108Z,1.95
2023-02-11T01:22:16.251Z,1.91
2023-02-11T01:27:23.747Z,1.86
2023-02-11T01:32:30.874Z,1.82
2023-02-11T01:37:38.198Z,1.80
2023-02-11T01:42:48.375Z,1.83
2023-02-11T01:47:57.452Z,1.87
2023-02-11T01:53:19.180Z,1.89
2023-02-11T01:58:27.091Z,1.88
2023-02-11T02:03:39.075Z,1.82
2023-02-11T02:08:52.700Z,1.75
2023-02-11T02:13:59.882Z,1.74
2023-02-11T02:19:35.248Z,1.76
2023-02-11T02:24:57.987Z,1.78
2023-02-11T02:30:27.767Z,1.76
2023-02-11T02:35:44.754Z,1.73
2023-02-11T02:40:55.927Z,1.70
2023-02-11T02:46:16.016Z,1.69
2023-02-11T02:51:48.638Z,1.72
2023-02-11T02:57:01.216Z,1.75
2023-02-11T03:02:16.552Z,1.77
2023-02-11T03:07:33.685Z,1.75
2023-02-11T03:12:43.565Z,1.72
2023-02-11T03:17:53.644Z,1.68
2023-02-11T03:23:12.930Z,1.66
2023-02-11T03:28:31.174Z,1.68
2023-02-11T03:33:38.935Z,1.72
2023-02-11T03:38:51.869Z,1.73
2023-02-11T03:44:00.858Z,1.70
2023-02-11T03:49:10.999Z,1.66
2023-02-11T03:54:21.561Z,1.63
2023-02-11T03:59:28.857Z,1.62
2023-02-11T04:04:36.019Z,1.65
2023-02-11T04:09:43.154Z,1.69
2023-02-11T04:14:50.375Z,1.71
2023-02-11T04:19:57.462Z,1.71
2023-02-11T04:25:05.149Z,1.67
2023-02-11T04:30:15.481Z,1.65
2023-02-11T04:35:22.699Z,1.64
2023-02-11T04:40:29.908Z,1.66
2023-02-11T04:45:37.555Z,1.70
2023-02-11T04:50:44.759Z,1.72
2023-02-11T04:55:53.199Z,1.71
2023-02-11T05:01:09.062Z,1.68
2023-02-11T05:06:16.614Z,1.64
2023-02-11T05:11:25.952Z,1.64
2023-02-11T05:16:33.260Z,1.65
2023-02-11T05:21:50.322Z,1.68
2023-02-11T05:27:04.560Z,1.69
2023-02-11T05:32:12.331Z,1.67
2023-02-11T05:37:20.164Z,1.64
2023-02-11T05:42:27.469Z,1.59
2023-02-11T05:47:34.761Z,1.57
2023-02-11T05:52:41.855Z,1.56
2023-02-11T05:57:49.193Z,1.55
2023-02-11T06:02:56.407Z,1.54
2023-02-11T06:08:03.646Z,1.51
2023-02-11T06:13:10.837Z,1.48
2023-02-11T06:18:18.049Z,1.45
2023-02-11T06:23:25.169Z,1.44
2023-02-11T06:28:40.004Z,1.46
2023-02-11T06:33:57.878Z,1.50
2023-02-11T06:39:05.200Z,1.53
2023-02-11T06:44:12.367Z,1.54
2023-02-11T06:49:19.616Z,1.52
2023-02-11T06:54:26.780Z,1.52
2023-02-11T06:59:33.974Z,1.56
2023-02-11T07:04:41.134Z,1.62
2023-02-11T07:09:48.334Z,1.71
2023-02-11T07:14:57.128Z,1.77
2023-02-11T07:20:04.824Z,1.80
2023-02-11T07:25:12.168Z,1.81
2023-02-11T07:30:19.622Z,1.84
2023-02-11T07:35:26.835Z,1.89
2023-02-11T07:40:34.031Z,1.98
2023-02-11T07:45:42.685Z,2.06
2023-02-11T07:50:50.638Z,2.13
2023-02-11T07:55:57.785Z,2.19
2023-02-11T08:01:06.051Z,2.22
2023-02-11T08:06:18.233Z,2.28
2023-02-11T08:11:28.170Z,2.37
2023-02-11T08:16:38.893Z,2.47
2023-02-11T08:21:47.230Z,2.55
2023-02-11T08:26:54.545Z,2.60
2023-02-11T08:32:01.683Z,2.62
2023-02-11T08:37:09.211Z,2.69
2023-02-11T08:42:16.868Z,2.77
2023-02-11T08:47:24.050Z,2.87
2023-02-11T08:52:31.276Z,2.94
2023-02-11T08:57:38.475Z,2.99
2023-02-11T09:02:45.554Z,3.00
2023-02-11T09:07:52.666Z,2.99
2023-02-11T09:12:59.818Z,3.02
2023-02-11T09:18:07.609Z,3.08
2023-02-11T09:23:16.465Z,3.13
2023-02-11T09:28:25.659Z,3.18
2023-02-11T09:33:32.955Z,3.21
2023-02-11T09:38:40.160Z,3.20
2023-02-11T09:43:49.524Z,3.21
2023-02-11T09:48:57.906Z,3.24
2023-02-11T09:54:13.304Z,3.29
2023-02-11T09:59:20.539Z,3.35
2023-02-11T10:04:45.959Z,3.37
2023-02-11T10:10:15.604Z,3.38
2023-02-11T10:15:29.372Z,3.43
2023-02-11T10:20:47.847Z,3.49
2023-02-11T10:25:56.504Z,3.55
2023-02-11T10:31:03.007Z,3.57
2023-02-11T10:36:14.918Z,3.57
2023-02-11T10:41:27.664Z,3.57
2023-02-11T10:46:40.332Z,3.61
2023-02-11T10:51:47.658Z,3.67
2023-02-11T10:57:02.034Z,3.75
2023-02-11T11:02:24.815Z,3.81
2023-02-11T11:07:35.391Z,3.84
2023-02-11T11:12:51.056Z,3.87
2023-02-11T11:23:29.745Z,3.97
2023-02-11T11:28:40.940Z,3.97
2023-02-11T11:33:49.532Z,3.99
2023-02-11T11:39:00.098Z,4.03
2023-02-11T11:44:25.617Z,4.09
2023-02-11T11:49:37.724Z,4.16
2023-02-11T11:54:49.025Z,4.23
2023-02-11T11:59:56.606Z,4.27
2023-02-11T12:05:13.046Z,4.29
2023-02-11T12:10:47.705Z,4.32
2023-02-11T12:16:10.043Z,4.39
2023-02-11T12:21:30.668Z,4.45
2023-02-11T12:26:45.793Z,4.50
2023-02-11T12:32:02.867Z,4.51
2023-02-11T12:37:20.329Z,4.52
2023-02-11T12:43:04.400Z,4.56
2023-02-11T12:48:35.714Z,4.63
2023-02-11T12:54:01.402Z,4.66
2023-02-11T12:59:14.830Z,4.68
2023-02-11T13:04:27.228Z,4.73
2023-02-11T13:09:42.288Z,4.81
2023-02-11T13:14:53.848Z,4.88
2023-02-11T13:20:09.337Z,4.92
2023-02-11T13:25:30.823Z,4.94
2023-02-11T13:30:47.140Z,4.97
2023-02-11T13:36:18.504Z,5.03
2023-02-11T13:41:30.854Z,5.10
2023-02-11T13:46:57.382Z,5.14
2023-02-11T13:52:06.834Z,5.15
2023-02-11T13:57:30.658Z,5.17
2023-02-11T14:02:55.834Z,5.19
2023-02-11T14:08:37.682Z,5.24
2023-02-11T14:14:05.029Z,5.26
2023-02-11T14:19:12.446Z,5.23
2023-02-11T14:24:48.241Z,5.21
2023-02-11T14:30:18.323Z,5.23
2023-02-11T14:35:33.513Z,5.25
2023-02-11T14:40:47.874Z,5.27
2023-02-11T14:45:57.731Z,5.27
2023-02-11T14:51:08.231Z,5.25
2023-02-11T14:56:22.892Z,5.24
2023-02-11T15:01:34.165Z,5.24
2023-02-11T15:06:44.062Z,5.22
2023-02-11T15:11:52.820Z,5.22
2023-02-11T15:17:02.730Z,5.24
2023-02-11T15:22:20.263Z,5.27
2023-02-11T15:27:27.589Z,5.31
2023-02-11T15:32:36.823Z,5.31
2023-02-11T15:37:44.965Z,5.28
2023-02-11T15:42:58.819Z,5.27
2023-02-11T15:48:14.560Z,5.29
2023-02-11T15:53:28.600Z,5.32
2023-02-11T15:58:42.048Z,5.35
2023-02-11T16:03:52.912Z,5.37
2023-02-11T16:09:06.200Z,5.35
2023-02-11T16:14:29.598Z,5.33
2023-02-11T16:19:44.125Z,5.35
2023-02-11T16:24:56.740Z,5.39
2023-02-11T16:30:05.779Z,5.43
2023-02-11T16:35:15.506Z,5.44
2023-02-11T16:40:23.853Z,5.41
2023-02-11T16:45:31.872Z,5.38
2023-02-11T16:50:37.492Z,5.38
2023-02-11T16:55:44.600Z,5.37
2023-02-11T17:00:52.207Z,5.33
2023-02-11T17:06:03.123Z,5.30
2023-02-11T17:11:10.470Z,5.30
2023-02-11T17:16:22.920Z,5.34
2023-02-11T17:21:31.636Z,5.35
2023-02-11T17:26:39.514Z,5.35
2023-02-11T17:31:49.184Z,5.35
2023-02-11T17:36:58.031Z,5.35
2023-02-11T17:42:06.234Z,5.37
2023-02-11T17:47:13.528Z,5.42
2023-02-11T17:52:21.717Z,5.45
2023-02-11T17:57:28.937Z,5.46
2023-02-11T18:02:36.145Z,5.46
2023-02-11T18:07:43.250Z,5.44
2023-02-11T18:12:50.477Z,5.46
2023-02-11T18:17:58.004Z,5.48
2023-02-11T18:23:05.193Z,5.46
2023-02-11T18:28:12.417Z,5.39
2023-02-11T18:33:20.319Z,5.34
2023-02-11T18:38:27.676Z,5.34
2023-02-11T18:43:35.394Z,5.37
2023-02-11T18:48:44.907Z,5.37
2023-02-11T18:53:52.172Z,5.30
2023-02-11T18:59:01.559Z,5.27
2023-02-11T19:04:12.339Z,5.27
2023-02-11T19:09:21.922Z,5.24
2023-02-11T19:14:31.628Z,5.21
2023-02-11T19:19:39.270Z,5.15
2023-02-11T19:24:46.461Z,5.08
2023-02-11T19:29:53.686Z,5.05
2023-02-11T19:35:00.824Z,5.04
2023-02-11T19:40:10.046Z,4.96
2023-02-11T19:45:17.614Z,4.85
2023-02-11T19:50:25.419Z,4.75
2023-02-11T19:55:35.633Z,4.67
2023-02-11T20:00:43.939Z,4.59
2023-02-11T20:05:51.522Z,4.49
2023-02-11T20:11:05.267Z,4.33
2023-02-11T20:16:16.888Z,4.21
2023-02-11T20:21:26.497Z,4.17
2023-02-11T20:26:35.504Z,4.20
2023-02-11T20:31:44.535Z,4.15
2023-02-11T20:36:53.009Z,4.06
2023-02-11T20:42:00.725Z,4.02
2023-02-11T20:47:08.406Z,4.04
2023-02-11T20:52:16.481Z,4.04
2023-02-11T20:57:24.145Z,4.03
2023-02-11T21:02:32.058Z,4.03
2023-02-11T21:07:40.697Z,4.07
2023-02-11T21:12:50.051Z,4.13
2023-02-11T21:18:00.742Z,4.20
2023-02-11T21:23:09.463Z,4.02
2023-02-11T21:28:18.710Z,3.70
2023-02-11T21:33:30.373Z,3.45
2023-02-11T21:38:41.117Z,3.27
2023-02-11T21:43:48.667Z,3.18
2023-02-11T21:48:56.227Z,3.13
2023-02-11T21:54:05.924Z,3.10
2023-02-11T21:59:15.772Z,3.07
2023-02-11T22:04:27.612Z,3.02
2023-02-11T22:09:35.366Z,3.00
2023-02-11T22:14:42.971Z,2.98
2023-02-11T22:19:50.389Z,2.92
2023-02-11T22:25:00.455Z,2.80
2023-02-11T22:30:10.279Z,2.64
2023-02-11T22:35:18.726Z,2.49
2023-02-11T22:40:26.209Z,2.38
2023-02-11T22:45:36.930Z,2.28
2023-02-11T22:50:44.363Z,2.21
2023-02-11T22:55:51.442Z,2.10
2023-02-11T23:00:58.593Z,1.99
2023-02-11T23:06:06.222Z,1.89
2023-02-11T23:11:15.875Z,1.82
2023-02-11T23:16:24.488Z,1.76
2023-02-11T23:21:34.445Z,1.67
2023-02-11T23:26:42.327Z,1.54
2023-02-11T23:31:50.015Z,1.38
2023-02-11T23:36:59.433Z,1.21
2023-02-11T23:42:06.953Z,1.08
2023-02-11T23:47:14.061Z,0.99
2023-02-11T23:52:21.295Z,0.96
2023-02-11T23:57:28.424Z,0.85
